Time;durP1;ratioP1;P1;durP2;ratioP2;P2;SDS_P1;SDS_P2;PMS_P1;PMS_P2;Temp;Humidity;BMP_temperature;BMP_pressure;BME280_temperature;BME280_humidity;BME280_pressure;Samples;Min_cycle;Max_cycle;Signal;HPM_P1;HPM_P2
2022/01/05 00:00:15;;;;;;;26.33;6.50;;;;;;;28.85;53.57;101118.34;5017814;28;66395;-38
2022/01/05 00:02:45;;;;;;;16.10;6.70;;;;;;;28.87;55.30;101119.00;5010611;28;69159;-39
2022/01/05 00:05:16;;;;;;;23.05;8.15;;;;;;;28.93;55.70;101118.19;5016309;28;65634;-38
2022/01/05 00:07:46;;;;;;;27.42;8.38;;;;;;;28.99;56.19;101121.13;5018074;28;70262;-40
2022/01/05 00:10:17;;;;;;;26.48;8.75;;;;;;;29.01;56.99;101119.06;5013422;28;66090;-41
2022/01/05 00:12:47;;;;;;;30.75;8.98;;;;;;;29.08;57.91;101126.16;5018020;28;69048;-41
2022/01/05 00:15:17;;;;;;;23.95;8.80;;;;;;;29.13;60.06;101128.25;5018560;28;66014;-41
2022/01/05 00:17:48;;;;;;;19.63;9.40;;;;;;;29.19;61.34;101138.25;5007072;28;69303;-42
2022/01/05 00:20:18;;;;;;;23.30;10.10;;;;;;;29.19;62.75;101138.25;5009328;28;65337;-42
2022/01/05 00:22:48;;;;;;;26.33;8.98;;;;;;;29.19;61.79;101138.25;5014647;28;70202;-41
2022/01/05 00:25:18;;;;;;;24.33;9.68;;;;;;;29.26;63.25;101149.09;5017080;28;66038;-41
2022/01/05 00:27:49;;;;;;;24.98;9.20;;;;;;;29.25;63.11;101153.66;5017469;28;69692;-39
2022/01/05 00:30:19;;;;;;;32.60;9.85;;;;;;;29.25;63.75;101159.06;5014352;28;65589;-41
2022/01/05 00:32:49;;;;;;;13.35;8.10;;;;;;;29.20;63.50;101149.88;5013209;28;68990;-40
2022/01/05 00:35:20;;;;;;;24.88;8.23;;;;;;;29.24;63.78;101157.41;5019536;28;65419;-39
2022/01/05 00:37:50;;;;;;;15.75;8.05;;;;;;;29.25;63.41;101158.22;5014203;28;70906;-39
2022/01/05 00:40:20;;;;;;;13.23;7.20;;;;;;;29.28;63.13;101174.88;5015588;28;66603;-40
2022/01/05 00:42:50;;;;;;;15.45;7.03;;;;;;;29.29;62.83;101181.94;5016928;28;70022;-39
2022/01/05 00:45:21;;;;;;;14.90;7.15;;;;;;;29.31;62.93;101190.69;5018665;28;66390;-39
2022/01/05 00:47:51;;;;;;;11.02;7.45;;;;;;;29.33;62.77;101191.28;5010136;28;69197;-40
2022/01/05 00:50:21;;;;;;;11.85;7.40;;;;;;;29.36;62.41;101203.56;5011023;28;66795;-39
2022/01/05 00:52:53;;;;;;;7.57;6.43;;;;;;;29.36;63.11;101198.16;5015199;28;68859;-40
2022/01/05 00:55:23;;;;;;;9.25;7.15;;;;;;;29.40;63.12;101210.25;5011285;28;65933;-39
2022/01/05 00:57:53;;;;;;;7.30;6.60;;;;;;;29.42;63.02;101204.63;5009312;28;68686;-39
2022/01/05 01:00:24;;;;;;;9.43;6.80;;;;;;;29.44;63.10;101216.06;5012305;28;66408;-39
2022/01/05 01:02:54;;;;;;;10.25;6.93;;;;;;;29.46;63.11;101219.41;4994194;28;69475;-42
2022/01/05 01:05:25;;;;;;;11.30;6.30;;;;;;;29.47;62.92;101221.06;5007628;28;66454;-39
2022/01/05 01:07:55;;;;;;;7.90;6.07;;;;;;;29.50;62.52;101231.47;5010765;28;69362;-37
2022/01/05 01:10:25;;;;;;;12.65;7.00;;;;;;;29.49;62.80;101230.66;5016378;28;66795;-39
2022/01/05 01:12:55;;;;;;;13.32;7.45;;;;;;;29.54;62.94;101232.75;5009553;28;70036;-38
2022/01/05 01:15:26;;;;;;;13.95;6.95;;;;;;;29.54;62.68;101227.34;5005005;28;66653;-39
2022/01/05 01:17:56;;;;;;;9.35;7.15;;;;;;;29.55;63.01;101223.59;5016598;28;70146;-39
2022/01/05 01:20:26;;;;;;;6.47;5.88;;;;;;;29.57;63.16;101226.94;5008800;28;66321;-39
2022/01/05 01:22:57;;;;;;;7.00;6.30;;;;;;;29.58;63.12;101220.50;5011794;28;69176;-38
2022/01/05 01:25:27;;;;;;;6.63;5.95;;;;;;;29.59;63.20;101230.28;5010326;28;65339;-39
2022/01/05 01:28:00;;;;;;;6.78;6.22;;;;;;;29.60;62.54;101234.66;5015567;28;69912;-39
2022/01/05 01:30:32;;;;;;;8.45;6.40;;;;;;;29.61;63.25;101228.19;5010590;28;66544;-38
2022/01/05 01:33:02;;;;;;;7.97;7.28;;;;;;;29.62;63.36;101235.28;5008622;28;69802;-40
2022/01/05 01:35:34;;;;;;;9.68;6.30;;;;;;;29.64;63.93;101241.31;5007923;28;66812;-38
2022/01/05 01:38:04;;;;;;;7.55;6.53;;;;;;;29.65;63.56;101234.91;5004892;28;70090;-39
2022/01/05 01:40:34;;;;;;;6.70;6.07;;;;;;;29.67;63.72;101232.84;5016529;28;65703;-39
2022/01/05 01:43:05;;;;;;;6.75;6.03;;;;;;;29.61;63.49;101209.25;5018888;28;70237;-39
2022/01/05 01:45:35;;;;;;;7.05;6.00;;;;;;;29.70;63.44;101226.16;5017888;28;65447;-39
2022/01/05 01:48:06;;;;;;;7.97;6.97;;;;;;;29.65;63.91;101221.38;5006939;28;69775;-39
2022/01/05 01:50:40;;;;;;;6.75;5.95;;;;;;;29.71;63.62;101217.84;5008645;28;65184;-39
2022/01/05 01:53:11;;;;;;;7.70;6.45;;;;;;;29.72;63.98;101216.81;5013642;28;69599;-38
2022/01/05 01:55:41;;;;;;;6.85;6.10;;;;;;;29.74;63.77;101212.03;5015255;28;66269;-38
2022/01/05 01:58:11;;;;;;;8.70;7.10;;;;;;;29.76;64.07;101220.78;5010391;28;69722;-38
2022/01/05 02:00:42;;;;;;;7.43;6.82;;;;;;;29.77;64.01;101213.50;5015920;28;66906;-38
2022/01/05 02:03:14;;;;;;;7.65;6.95;;;;;;;29.77;63.81;101208.91;5013841;28;70080;-38
2022/01/05 02:05:47;;;;;;;7.78;7.00;;;;;;;29.79;64.10;101209.56;5016889;28;66222;-38
2022/01/05 02:08:23;;;;;;;6.93;6.38;;;;;;;29.79;63.97;101206.84;5017317;28;69925;-39
2022/01/05 02:10:54;;;;;;;8.10;7.43;;;;;;;29.84;63.57;101195.44;5018149;28;64975;-39
2022/01/05 02:13:24;;;;;;;7.50;6.85;;;;;;;29.84;63.69;101196.25;5006421;28;70725;-48
2022/01/05 02:15:54;;;;;;;6.72;6.13;;;;;;;29.69;64.02;101163.16;5012855;28;66293;-39
2022/01/05 02:21:09;;;;;;;9.05;8.15;;;;;;;29.92;64.34;101188.97;5012652;28;65896;-40
2022/01/05 02:23:39;;;;;;;8.45;7.68;;;;;;;29.87;64.27;101186.91;5013059;28;69366;-39
2022/01/05 02:26:11;;;;;;;9.98;8.20;;;;;;;29.89;64.24;101181.28;5014005;28;65303;-39
2022/01/05 02:28:42;;;;;;;8.27;7.78;;;;;;;29.91;63.73;101184.59;5016428;28;69461;-38
2022/01/05 02:31:15;;;;;;;8.30;7.45;;;;;;;29.92;63.91;101180.84;5017568;28;65477;-39
2022/01/05 02:33:50;;;;;;;9.18;7.88;;;;;;;29.90;63.60;101177.53;5012707;28;70876;-38
2022/01/05 02:36:22;;;;;;;8.13;7.43;;;;;;;29.97;63.75;101189.19;5013270;28;66118;-40
2022/01/05 02:38:53;;;;;;;9.85;7.85;;;;;;;29.89;63.94;101162.34;5018558;28;70118;-38
2022/01/05 02:41:24;;;;;;;7.50;6.90;;;;;;;30.00;63.70;101186.88;5019379;28;66997;-38
2022/01/05 02:43:54;;;;;;;7.22;6.72;;;;;;;30.02;64.20;101187.53;5019035;28;70212;-38
2022/01/05 02:46:25;;;;;;;9.75;7.72;;;;;;;29.91;63.94;101165.69;5017233;28;66376;-38
2022/01/05 02:48:55;;;;;;;8.30;7.57;;;;;;;30.03;64.38;101189.22;5012748;28;70367;-39
2022/01/05 02:51:26;;;;;;;8.33;7.50;;;;;;;30.06;64.47;101187.94;5016785;28;66072;-39
2022/01/05 02:53:57;;;;;;;7.28;6.68;;;;;;;30.10;64.50;101194.63;5017228;28;70122;-39
2022/01/05 02:56:27;;;;;;;7.35;6.80;;;;;;;30.12;63.71;101184.44;5020820;28;66586;-40
2022/01/05 02:58:59;;;;;;;8.70;7.90;;;;;;;30.12;64.31;101187.13;5020539;28;68913;-38
2022/01/05 03:01:29;;;;;;;8.45;7.65;;;;;;;30.15;63.63;101197.53;5017926;28;66576;-40
2022/01/05 03:04:00;;;;;;;8.40;7.60;;;;;;;30.15;63.52;101181.31;5017278;28;69188;-38
2022/01/05 03:06:30;;;;;;;9.65;8.82;;;;;;;30.17;63.95;101186.47;5027717;28;65629;-39
2022/01/05 03:09:00;;;;;;;10.23;9.07;;;;;;;30.17;63.41;101181.94;5024439;28;69851;-40
2022/01/05 03:11:31;;;;;;;10.25;9.25;;;;;;;30.18;63.58;101164.66;5025662;28;66614;-40
2022/01/05 03:14:01;;;;;;;12.25;9.60;;;;;;;30.24;63.44;101180.06;5021252;28;70185;-40
2022/01/05 03:16:31;;;;;;;10.50;9.60;;;;;;;30.23;63.44;101183.81;5021860;28;66151;-39
2022/01/05 03:19:02;;;;;;;12.30;10.30;;;;;;;30.28;64.01;101181.34;5023078;28;70704;-39
2022/01/05 03:21:32;;;;;;;10.70;9.60;;;;;;;30.28;63.60;101183.19;5021169;28;65422;-38
2022/01/05 03:24:03;;;;;;;10.88;10.05;;;;;;;30.34;63.56;101184.22;5017584;28;70196;-41
2022/01/05 03:26:34;;;;;;;12.60;11.35;;;;;;;30.34;63.58;101178.81;5019946;28;65182;-40
2022/01/05 03:29:04;;;;;;;15.10;11.18;;;;;;;30.38;64.24;101185.47;5024284;28;69630;-39
2022/01/05 03:31:34;;;;;;;11.50;10.60;;;;;;;30.39;64.31;101176.31;5019160;28;65976;-39
2022/01/05 03:34:05;;;;;;;12.32;11.10;;;;;;;30.43;63.72;101177.56;5002097;28;69583;-40
2022/01/05 03:36:36;;;;;;;12.27;10.97;;;;;;;30.42;63.68;101176.75;5001193;28;66063;-40
2022/01/05 03:39:06;;;;;;;12.13;10.85;;;;;;;30.45;64.03;101173.63;5013430;28;70540;-39
2022/01/05 03:41:36;;;;;;;13.07;11.45;;;;;;;30.46;63.54;101172.56;4996183;28;66301;-40
2022/01/05 03:44:06;;;;;;;12.50;11.32;;;;;;;30.48;64.06;101169.66;5011128;28;70012;-39
2022/01/05 03:46:37;;;;;;;12.07;10.88;;;;;;;30.51;63.93;101171.94;5017972;28;66055;-39
2022/01/05 03:49:08;;;;;;;14.27;12.88;;;;;;;30.49;63.42;101166.72;5017732;28;71788;-39
2022/01/05 03:51:38;;;;;;;15.25;12.57;;;;;;;30.46;63.69;101155.50;5015799;28;66196;-39
2022/01/05 03:54:08;;;;;;;18.30;12.82;;;;;;;30.56;63.15;101165.88;5018099;28;69995;-38
2022/01/05 03:56:39;;;;;;;14.50;13.15;;;;;;;30.51;63.41;101152.97;5018058;28;66162;-39
2022/01/05 03:59:09;;;;;;;17.63;12.35;;;;;;;30.57;63.73;101162.97;5015186;28;70246;-40
2022/01/05 04:01:39;;;;;;;13.23;11.55;;;;;;;30.60;63.52;101159.81;5016437;28;65754;-44
2022/01/05 04:04:10;;;;;;;16.45;12.43;;;;;;;30.59;63.91;101146.50;5010630;28;70248;-39
2022/01/05 04:06:40;;;;;;;16.02;13.77;;;;;;;30.62;63.21;101149.63;5020889;28;66405;-38
2022/01/05 04:09:11;;;;;;;13.70;12.48;;;;;;;30.65;63.46;101143.78;5016571;28;69799;-39
2022/01/05 04:11:41;;;;;;;15.00;13.50;;;;;;;30.68;63.71;101147.94;5017355;28;65601;-38
2022/01/05 04:14:12;;;;;;;15.68;12.48;;;;;;;30.67;63.23;101139.00;5018008;28;70241;-38
2022/01/05 04:16:43;;;;;;;14.80;13.05;;;;;;;30.69;63.97;101128.75;5018036;28;65349;-38
2022/01/05 04:19:13;;;;;;;17.40;13.77;;;;;;;30.72;63.27;101128.31;5017081;28;70572;-39
2022/01/05 04:21:43;;;;;;;14.75;13.15;;;;;;;30.75;63.77;101115.41;5016246;28;66391;-41
2022/01/05 04:24:13;;;;;;;15.65;13.68;;;;;;;30.78;63.42;101120.41;5010911;28;69821;-40
2022/01/05 04:26:43;;;;;;;15.65;13.43;;;;;;;30.80;63.18;101118.34;5017077;28;66319;-39
2022/01/05 04:29:14;;;;;;;17.98;13.13;;;;;;;30.80;63.42;101102.94;5009592;28;69773;-39
2022/01/05 04:31:45;;;;;;;14.82;12.88;;;;;;;30.84;63.06;101100.59;5017787;28;66752;-38
2022/01/05 04:34:16;;;;;;;17.75;13.60;;;;;;;30.86;63.55;101098.53;5011834;28;69691;-40
2022/01/05 04:37:07;;;;;;;15.00;13.43;;;;;;;30.88;62.98;101096.44;5016122;28;66320;-40
2022/01/05 04:39:37;;;;;;;15.57;12.93;;;;;;;30.89;63.32;101095.38;5015017;28;70320;-40
2022/01/05 04:42:08;;;;;;;16.30;12.65;;;;;;;30.92;62.83;101094.94;5015328;28;65908;-39
2022/01/05 04:44:38;;;;;;;15.40;13.45;;;;;;;30.94;63.09;101088.28;5011016;28;70187;-40
2022/01/05 04:47:09;;;;;;;15.45;13.93;;;;;;;30.96;63.44;101088.06;5009348;28;66381;-40
2022/01/05 04:49:40;;;;;;;20.55;13.95;;;;;;;30.97;63.21;101087.00;5009646;28;69134;-39
2022/01/05 04:52:10;;;;;;;14.90;13.27;;;;;;;30.99;63.09;101084.94;5016911;28;66176;-39
2022/01/05 04:54:41;;;;;;;15.30;13.63;;;;;;;30.97;63.32;101070.75;5016990;28;70142;-39
2022/01/05 04:57:11;;;;;;;15.50;13.48;;;;;;;31.02;63.55;101073.66;5014544;28;66671;-39
2022/01/05 04:59:42;;;;;;;14.52;12.93;;;;;;;31.04;63.33;101068.84;5014665;28;69292;-39
2022/01/05 05:02:13;;;;;;;14.98;13.40;;;;;;;31.05;63.81;101067.81;5017120;28;66427;-39
2022/01/05 05:04:44;;;;;;;17.95;13.60;;;;;;;31.04;63.72;101054.50;5015543;28;70451;-39
2022/01/05 05:07:14;;;;;;;16.58;14.38;;;;;;;31.06;64.20;101058.63;5016326;28;66188;-39
2022/01/05 05:09:44;;;;;;;14.98;13.48;;;;;;;31.07;63.96;101059.47;5016712;28;69497;-39
2022/01/05 05:12:14;;;;;;;15.48;13.93;;;;;;;31.05;64.03;101048.00;5016357;28;65941;-39
2022/01/05 05:14:45;;;;;;;14.25;12.95;;;;;;;31.11;64.25;101052.56;5015151;28;70286;-39
2022/01/05 05:17:15;;;;;;;15.27;13.75;;;;;;;31.10;63.84;101046.31;5028611;28;65977;-39
2022/01/05 05:19:46;;;;;;;15.30;13.70;;;;;;;31.12;63.67;101037.94;5016979;28;70215;-39
2022/01/05 05:22:16;;;;;;;15.43;13.88;;;;;;;31.14;63.99;101033.97;5016082;28;66119;-39
2022/01/05 05:24:46;;;;;;;14.57;13.32;;;;;;;31.12;64.23;101013.56;5015733;28;70467;-39
2022/01/05 05:27:17;;;;;;;16.05;14.55;;;;;;;31.16;64.08;101015.63;5009919;28;66491;-39
2022/01/05 05:29:47;;;;;;;15.98;14.45;;;;;;;31.20;64.50;101017.88;5016306;28;69802;-39
2022/01/05 05:32:17;;;;;;;16.33;13.80;;;;;;;31.23;63.68;101020.16;5012008;28;65151;-39
2022/01/05 05:34:47;;;;;;;16.88;14.95;;;;;;;31.25;64.11;101002.63;5008610;28;70494;-39
2022/01/05 05:37:18;;;;;;;21.35;15.80;;;;;;;31.25;64.50;100996.38;5008694;28;65436;-39
2022/01/05 05:39:48;;;;;;;16.50;14.80;;;;;;;31.23;63.89;100982.22;5014285;28;69994;-39
2022/01/05 05:42:18;;;;;;;20.90;16.00;;;;;;;31.28;63.92;100995.94;5015295;28;65903;-39
2022/01/05 05:44:49;;;;;;;22.65;15.63;;;;;;;31.29;63.71;100993.03;5011480;28;70076;-39
2022/01/05 05:47:19;;;;;;;18.90;15.43;;;;;;;31.29;63.84;100993.03;5010911;28;64468;-39
2022/01/05 05:49:49;;;;;;;18.13;15.35;;;;;;;31.31;63.93;100992.78;5005875;28;70140;-39
2022/01/05 05:52:20;;;;;;;17.83;15.50;;;;;;;31.30;63.98;100988.44;5014849;28;65721;-39
2022/01/05 05:54:51;;;;;;;21.30;16.13;;;;;;;31.31;63.48;100979.22;5010870;28;69775;-39
2022/01/05 05:57:41;;;;;;;18.38;16.13;;;;;;;31.30;63.85;100977.59;5015782;28;65602;-40
2022/01/05 06:00:12;;;;;;;20.10;17.23;;;;;;;31.32;63.65;100975.50;5013577;28;69769;-39
2022/01/05 06:02:43;;;;;;;22.73;17.08;;;;;;;31.31;64.03;100965.69;5010262;28;65913;-39
2022/01/05 06:05:16;;;;;;;20.52;16.95;;;;;;;31.32;63.80;100964.66;5005520;28;43867;-40
2022/01/05 06:07:46;;;;;;;20.05;16.92;;;;;;;31.32;63.68;100964.66;5009374;28;65418;-40
2022/01/05 06:10:17;;;;;;;19.48;17.55;;;;;;;31.32;63.94;100951.09;5006622;28;70333;-39
2022/01/05 06:12:47;;;;;;;18.13;16.15;;;;;;;31.33;64.18;100941.91;5012405;28;65703;-39
2022/01/05 06:15:17;;;;;;;18.10;16.23;;;;;;;31.34;64.21;100939.00;5008305;28;70183;-39
2022/01/05 06:17:48;;;;;;;20.00;17.17;;;;;;;31.34;63.93;100930.00;5014695;28;66504;-40
2022/01/05 06:20:18;;;;;;;17.67;15.98;;;;;;;31.38;63.92;100928.56;5013451;28;69683;-39
2022/01/05 06:22:49;;;;;;;17.90;16.15;;;;;;;31.38;63.65;100929.38;5014375;28;66602;-39
2022/01/05 06:25:19;;;;;;;18.83;16.92;;;;;;;31.40;63.82;100923.75;5012871;28;69968;-39
2022/01/05 06:27:49;;;;;;;19.60;16.10;;;;;;;31.34;63.94;100905.59;5009928;28;66251;-38
2022/01/05 06:30:24;;;;;;;17.33;15.63;;;;;;;31.43;64.24;100917.88;5014041;28;69846;-39
2022/01/05 06:32:55;;;;;;;21.10;17.70;;;;;;;31.45;63.93;100921.16;5015898;28;65481;-40
2022/01/05 06:35:25;;;;;;;27.52;17.25;;;;;;;31.47;63.46;100916.38;5015716;28;70767;-38
2022/01/05 06:37:55;;;;;;;21.98;17.75;;;;;;;31.47;63.48;100918.25;5016930;28;65643;-39
2022/01/05 06:40:26;;;;;;;18.88;16.83;;;;;;;31.50;63.81;100918.63;5019297;28;68791;-40
2022/01/05 06:42:59;;;;;;;19.50;17.40;;;;;;;31.50;63.52;100913.19;5018407;28;66298;-40
2022/01/05 06:45:29;;;;;;;19.23;17.20;;;;;;;31.52;63.88;100921.94;5013644;28;70064;-39
2022/01/05 06:48:00;;;;;;;17.92;16.33;;;;;;;31.53;63.78;100909.22;5007637;28;66070;-38
2022/01/05 06:50:31;;;;;;;18.90;16.92;;;;;;;31.50;63.39;100905.06;5012960;28;70937;-40
2022/01/05 06:53:02;;;;;;;19.88;17.80;;;;;;;31.55;63.28;100898.97;5011790;28;67188;-38
2022/01/05 06:55:32;;;;;;;19.00;17.03;;;;;;;31.54;63.58;100908.19;5016663;28;69901;-40
2022/01/05 06:58:04;;;;;;;20.10;16.60;;;;;;;31.58;63.25;100910.19;5012205;28;65678;-38
2022/01/05 07:00:35;;;;;;;18.48;16.90;;;;;;;31.59;63.40;100894.75;5018405;28;69714;-41
2022/01/05 07:03:05;;;;;;;25.80;17.50;;;;;;;31.60;63.75;100891.84;5018547;28;66293;-39
2022/01/05 07:05:36;;;;;;;18.55;16.60;;;;;;;31.64;63.59;100899.50;5010135;28;70813;-40
2022/01/05 07:08:06;;;;;;;18.20;16.48;;;;;;;31.60;63.07;100891.84;5008175;28;65261;-39
2022/01/05 07:10:36;;;;;;;19.42;17.40;;;;;;;31.66;63.45;100892.00;5012395;28;70648;-40
2022/01/05 07:13:08;;;;;;;18.08;16.33;;;;;;;31.69;63.18;100899.66;5016819;28;66788;-40
2022/01/05 07:15:38;;;;;;;18.77;16.83;;;;;;;31.66;63.06;100883.84;5018148;28;69184;-41
2022/01/05 07:18:09;;;;;;;18.88;17.05;;;;;;;31.55;63.33;100875.41;5018897;28;66487;-39
2022/01/05 07:20:39;;;;;;;18.67;16.98;;;;;;;31.69;62.80;100888.81;5018322;28;69685;-39
2022/01/05 07:23:10;;;;;;;18.48;16.70;;;;;;;31.73;63.05;100890.88;5016910;28;66228;-40
2022/01/05 07:25:41;;;;;;;19.60;17.50;;;;;;;31.73;63.11;100888.16;5011624;28;70242;-40
2022/01/05 07:28:11;;;;;;;18.90;17.20;;;;;;;31.75;62.92;100893.34;5013331;28;66205;-40
2022/01/05 07:30:41;;;;;;;19.17;16.88;;;;;;;31.73;63.10;100892.72;5013101;28;69178;-40
2022/01/05 07:33:13;;;;;;;18.50;16.63;;;;;;;31.76;63.09;100900.41;4999169;28;65920;-39
2022/01/05 07:35:43;;;;;;;20.02;17.70;;;;;;;31.75;63.05;100893.34;5015826;28;70212;-40
2022/01/05 07:38:13;;;;;;;18.42;16.65;;;;;;;31.78;62.65;100892.88;5017918;28;65617;-39
2022/01/05 07:40:44;;;;;;;16.80;15.52;;;;;;;31.79;62.78;100889.13;5016165;28;70398;-39
2022/01/05 07:43:15;;;;;;;18.60;16.80;;;;;;;31.80;62.88;100890.78;5012176;28;67671;-39
2022/01/05 07:45:45;;;;;;;17.20;15.82;;;;;;;31.82;62.52;100899.53;5010363;28;70327;-40
2022/01/05 07:48:15;;;;;;;17.85;16.33;;;;;;;31.77;63.06;100880.38;5008005;28;66353;-39
2022/01/05 07:50:46;;;;;;;18.45;16.75;;;;;;;31.80;63.13;100879.94;5014398;28;70154;-40
2022/01/05 07:53:16;;;;;;;18.05;16.10;;;;;;;31.87;62.65;100891.50;5012668;28;65997;-39
2022/01/05 07:56:00;;;;;;;17.90;16.10;;;;;;;31.89;62.57;100889.41;5014020;28;69535;-40
2022/01/05 07:58:31;;;;;;;17.98;16.30;;;;;;;31.88;62.63;100882.34;5008158;28;66347;-40
2022/01/05 08:01:03;;;;;;;18.50;16.65;;;;;;;31.90;62.42;100880.25;5009077;28;69689;-39
2022/01/05 08:03:34;;;;;;;18.98;17.08;;;;;;;31.90;62.68;100879.38;5017822;28;66249;-39
2022/01/05 08:06:22;;;;;;;18.95;17.05;;;;;;;31.90;62.40;100880.25;5012829;28;69777;-39
2022/01/05 08:08:53;;;;;;;17.93;16.20;;;;;;;31.91;61.98;100875.63;5009343;28;65704;-39
2022/01/05 08:11:24;;;;;;;17.63;15.87;;;;;;;31.92;62.32;100871.88;5010310;28;69277;-39
2022/01/05 08:13:54;;;;;;;18.55;16.67;;;;;;;31.97;62.04;100870.16;5010883;28;66117;-39
2022/01/05 08:16:25;;;;;;;19.88;16.70;;;;;;;31.93;62.43;100860.81;5008671;28;69722;-39
2022/01/05 08:18:55;;;;;;;17.58;15.85;;;;;;;32.00;61.82;100861.53;5016336;28;66331;-39
2022/01/05 08:21:26;;;;;;;17.80;16.20;;;;;;;31.98;62.13;100851.97;5012600;28;69447;-38
2022/01/05 08:23:56;;;;;;;18.00;16.10;;;;;;;32.04;62.27;100851.91;5016902;28;66567;-40
2022/01/05 08:26:27;;;;;;;17.63;15.73;;;;;;;32.02;61.98;100856.72;5010924;28;70645;-39
2022/01/05 08:28:58;;;;;;;17.80;16.05;;;;;;;32.05;61.98;100858.16;5009192;28;66512;-38
2022/01/05 08:31:28;;;;;;;18.88;16.75;;;;;;;32.08;61.87;100854.97;5012137;28;69604;-39
2022/01/05 08:33:59;;;;;;;17.73;16.08;;;;;;;32.08;61.86;100851.44;5014121;28;66195;-40
2022/01/05 08:36:29;;;;;;;17.05;15.50;;;;;;;32.07;61.78;100841.63;5015068;28;69526;-46
2022/01/05 08:39:00;;;;;;;18.08;16.45;;;;;;;32.08;61.66;100841.41;5016087;28;65263;-39
2022/01/05 08:41:31;;;;;;;16.60;15.33;;;;;;;32.11;61.51;100848.28;5006963;28;69881;-40
2022/01/05 08:44:01;;;;;;;17.58;16.00;;;;;;;32.08;61.43;100844.13;5007778;28;66320;-39
2022/01/05 08:46:31;;;;;;;17.83;15.77;;;;;;;32.17;61.79;100858.19;5009131;28;69838;-39
2022/01/05 08:49:02;;;;;;;16.95;15.38;;;;;;;32.14;61.43;100853.25;5016713;28;66012;-39
2022/01/05 08:51:32;;;;;;;17.80;16.10;;;;;;;32.19;61.27;100856.09;5012520;28;70020;-39
2022/01/05 08:54:03;;;;;;;15.80;14.30;;;;;;;32.16;61.47;100862.00;5014279;28;66420;-39
2022/01/05 08:56:34;;;;;;;17.33;15.57;;;;;;;32.23;61.30;100868.13;5013428;28;70337;-38
2022/01/05 08:59:05;;;;;;;16.23;14.73;;;;;;;32.18;61.40;100859.84;5013697;28;66322;-39
2022/01/05 09:01:36;;;;;;;16.63;14.95;;;;;;;32.23;61.50;100868.13;5010909;28;70180;-40
2022/01/05 09:04:06;;;;;;;15.93;14.40;;;;;;;32.23;61.37;100868.97;5009266;28;66157;-38
2022/01/05 09:06:37;;;;;;;17.67;15.88;;;;;;;32.26;61.40;100873.09;5005985;28;70635;-39
2022/01/05 09:09:07;;;;;;;16.40;14.80;;;;;;;32.27;61.40;100874.78;5011624;28;65673;-38
2022/01/05 09:11:37;;;;;;;17.30;15.65;;;;;;;32.28;61.41;100871.00;5006001;28;69867;-39
2022/01/05 09:14:08;;;;;;;16.15;14.65;;;;;;;32.29;61.13;100878.09;5007349;28;65846;-39
2022/01/05 09:16:38;;;;;;;16.17;14.68;;;;;;;32.24;61.12;100869.81;5012113;28;70380;-40
2022/01/05 09:19:08;;;;;;;15.82;14.63;;;;;;;32.24;60.84;100877.94;5013648;28;64876;-39
2022/01/05 09:21:38;;;;;;;15.90;14.57;;;;;;;32.32;61.05;100891.19;5014428;28;70276;-39
2022/01/05 09:24:09;;;;;;;16.52;15.13;;;;;;;32.31;60.89;100881.38;5016298;28;66241;-39
2022/01/05 09:26:39;;;;;;;16.77;15.38;;;;;;;32.32;60.91;100893.91;5015182;28;70166;-39
2022/01/05 09:29:09;;;;;;;16.38;14.98;;;;;;;32.33;60.88;100895.56;5010008;28;65449;-39
2022/01/05 09:31:40;;;;;;;16.40;14.90;;;;;;;32.34;60.68;100897.22;5015292;28;69056;-39
2022/01/05 09:34:10;;;;;;;15.88;14.30;;;;;;;32.33;60.61;100894.75;4995384;28;66060;-39
2022/01/05 09:36:44;;;;;;;15.10;14.07;;;;;;;32.37;60.50;100901.34;5015344;28;69077;-39
2022/01/05 09:42:05;;;;;;;15.07;13.57;;;;;;;32.35;60.68;100898.88;5007339;28;69353;-39
2022/01/05 09:44:45;;;;;;;15.95;14.45;;;;;;;32.21;60.48;100872.97;5010234;28;65007;-39
2022/01/05 09:47:52;;;;;;;15.75;14.15;;;;;;;32.30;60.31;100900.63;5015239;28;70127;-39
2022/01/05 09:50:23;;;;;;;15.00;13.80;;;;;;;32.34;60.40;100904.53;5008954;28;65669;-39
2022/01/05 09:52:55;;;;;;;14.57;13.38;;;;;;;32.34;60.64;100902.63;5014634;28;70324;-39
2022/01/05 09:55:26;;;;;;;;;;;;;;;32.10;60.83;100911.75;5016691;28;66493;-40
2022/01/05 09:57:57;;;;;;;14.80;13.50;;;;;;;32.32;60.66;100912.91;4995749;28;71036;-39
2022/01/05 10:00:27;;;;;;;15.38;13.98;;;;;;;32.34;60.52;100899.91;5006636;28;66052;-39
2022/01/05 10:02:58;;;;;;;15.45;14.02;;;;;;;32.34;60.68;100897.22;5014413;28;69539;-38
2022/01/05 10:05:29;;;;;;;15.65;14.27;;;;;;;32.36;60.15;100910.56;5013677;28;66473;-39
2022/01/05 10:08:00;;;;;;;15.27;13.70;;;;;;;32.27;60.27;100902.75;5015724;28;69955;-39
2022/01/05 10:10:30;;;;;;;14.90;13.77;;;;;;;32.32;60.34;100914.78;5013489;28;65701;-39
2022/01/05 10:13:01;;;;;;;14.93;13.75;;;;;;;32.35;60.36;100914.34;5017719;28;70424;-39
2022/01/05 10:15:32;;;;;;;14.15;12.77;;;;;;;32.35;60.07;100917.88;5014940;28;65439;-39
2022/01/05 10:18:14;;;;;;;14.65;13.43;;;;;;;32.15;60.13;100887.44;5017123;28;70492;-39
2022/01/05 10:20:59;;;;;;;14.75;13.52;;;;;;;32.32;59.94;100921.06;5012000;28;66116;-40
2022/01/05 10:23:37;;;;;;;13.88;12.93;;;;;;;32.34;60.06;100926.25;5008606;28;70606;-38
2022/01/05 10:26:26;;;;;;;14.70;13.50;;;;;;;32.27;60.23;100926.34;5012787;28;65847;-39
2022/01/05 10:29:04;;;;;;;14.00;12.70;;;;;;;32.16;59.94;100905.41;5009513;28;70950;-39
2022/01/05 10:31:37;;;;;;;14.65;13.35;;;;;;;31.98;59.92;100881.81;5016554;28;66632;-40
2022/01/05 10:34:25;;;;;;;14.02;12.82;;;;;;;32.12;59.92;100918.59;5015257;28;70471;-40
2022/01/05 10:36:57;;;;;;;13.93;12.93;;;;;;;32.31;60.29;100946.53;5014040;28;66025;-40
2022/01/05 10:39:40;;;;;;;14.40;12.93;;;;;;;32.27;59.90;100946.16;5015600;28;69947;-39
2022/01/05 10:42:12;;;;;;;14.50;13.25;;;;;;;32.11;60.07;100916.13;5011140;28;66478;-40
2022/01/05 10:44:44;;;;;;;15.23;13.80;;;;;;;32.25;61.11;100942.03;4996618;28;69873;-40
2022/01/05 10:47:16;;;;;;;15.60;14.02;;;;;;;32.33;61.26;100949.03;5031469;28;66157;-40
2022/01/05 10:49:46;;;;;;;31.17;15.00;;;;;;;32.32;61.25;100956.34;5016024;28;69980;-40
2022/01/05 10:52:24;;;;;;;79.90;17.20;;;;;;;32.34;61.25;100959.66;5014989;28;65942;-39
2022/01/05 10:55:26;;;;;;;40.38;17.33;;;;;;;32.19;61.21;100932.09;5007539;28;70329;-39
2022/01/05 10:58:10;;;;;;;27.48;17.17;;;;;;;32.34;60.82;100973.22;5026051;28;66390;-40
2022/01/05 11:00:54;;;;;;;21.65;16.45;;;;;;;32.36;60.68;100971.13;5018042;28;70278;-40
2022/01/05 11:03:35;;;;;;;35.97;16.65;;;;;;;32.34;60.60;100973.22;5009494;28;66928;-40
2022/01/05 11:06:17;;;;;;;29.05;17.25;;;;;;;32.11;60.50;100935.09;5017412;28;70394;-40
2022/01/05 11:08:55;;;;;;;20.10;13.05;;;;;;;32.32;60.37;100980.78;5015505;28;66804;-40
2022/01/05 11:11:30;;;;;;;19.20;13.13;;;;;;;32.28;60.52;100974.13;4995448;28;69814;-40
2022/01/05 11:14:01;;;;;;;25.33;15.07;;;;;;;32.29;60.37;100986.69;5017582;28;66803;-38
2022/01/05 11:16:32;;;;;;;22.02;13.30;;;;;;;32.30;60.42;100987.50;5012354;28;69903;-39
2022/01/05 11:19:16;;;;;;;18.90;12.82;;;;;;;32.27;60.55;100988.78;5017589;28;66524;-39
2022/01/05 11:22:20;;;;;;;21.77;12.00;;;;;;;32.21;60.50;100987.81;5017019;28;70138;-40
2022/01/05 11:24:56;;;;;;;21.88;13.52;;;;;;;32.27;60.93;100996.91;5014957;28;65424;-38
2022/01/05 11:27:28;;;;;;;19.40;13.10;;;;;;;32.27;60.73;101002.34;5013901;28;70144;-39
2022/01/05 11:30:00;;;;;;;17.98;14.10;;;;;;;32.25;60.41;100996.31;5008574;28;67407;-39
2022/01/05 11:32:34;;;;;;;23.05;15.75;;;;;;;32.24;60.54;101005.53;4999923;28;69003;-39
2022/01/05 11:35:08;;;;;;;24.98;16.75;;;;;;;32.25;60.45;101009.88;5012810;28;65635;-41
2022/01/05 11:37:38;;;;;;;26.33;16.35;;;;;;;32.22;60.52;101018.47;5013831;28;69345;-39
2022/01/05 11:40:10;;;;;;;18.63;15.18;;;;;;;32.22;60.19;101018.47;5012999;28;66084;-39